首页
METAR-TAF:

METAR-TAF

机场 :

Riverton Regional Airport

Riverton, 怀俄明州, 美国

纬度: 43-03-43N, 经度: 108-26-47W, 海拔: 1684米

当前天气观测

该预报发布于44分钟前的03:53 UTC
风速8节,风向
温度 21°C
湿度 40%
气压 1026 hPa
能見度: 16.1公里
少量云层高于12000英尺

METAR: KRIW 200353Z AUTO 09008KT 10SM FEW120 21/07 A3029 RMK AO2 PK WND 01029/0303 SLP184 T02110072

时间: 22:37 (04:37 UTC)

预报

该预报发布于5小时和17分钟前的23:20 UTC
预报有效从20日的 00点(UTC)到 20日的 24点(UTC)
风速15节,风向西南,有时为25节阵风
能見度: 10公里
少量云层高于6000英尺
少量云层高于9000英尺
散云层高于12000英尺
短暂存在
从 20日的 00点(UTC)到 20日的 01点(UTC)
风速20节,风向多变,有时为30节阵风
散云层高于8000英尺, 积雨云.
多云层高于11000英尺
雷暴, 小雨
从 20日的 0100点(UTC)
风速12节,风向,有时为22节阵风
能見度: 10公里
散云层高于8000英尺, 积雨云.
散云层高于11000英尺
附近有雷暴
从 20日的 0300点(UTC)
风速8节,风向西北
能見度: 10公里
天空无云
从 20日的 1800点(UTC)
风速12节,风向,有时为18节阵风
能見度: 10公里
散云层高于12000英尺
几率 30%
从 20日的 21点(UTC)到 20日的 24点(UTC)
风速15节,风向多变,有时为25节阵风
散云层高于8000英尺, 积雨云.
多云层高于10000英尺
雷暴, 小雨,

TAF: KRIW 192320Z 2000/2024 22015G25KT P6SM FEW060 FEW090 SCT120 TEMPO 2000/2001 VRB20G30KT -TSRA SCT080CB BKN110 FM200100 01012G22KT P6SM VCTS SCT080CB SCT110 FM200300 31008KT P6SM SKC FM201800 36012G18KT P6SM SCT120 PROB30 2021/2024 VRB15G25KT -TSRA SCT080CB BKN100

超过4000个机场的气象观测和天气预报(METAR&TAF报告)。

可查询的气象台以黄色和红色小点在地图上表示。

将鼠标移到小点上方,可查看气象台名称。

然后点击查看天气观测和预报。

如需切换地图:点击带黑十字的绿色按钮放大地图;点击带横线的绿色按钮缩小地图;或者点击绿色箭头查看邻近地区的地图。


METAR-TAF: